sensor_id;sensor_type;location;lat;lon;timestamp;P1;durP1;ratioP1;P2;durP2;ratioP2
67363;SDS011;54250;45.572;38.086;2022-12-13T00:01:40;3.58;;;1.92;;
67363;SDS011;54250;45.572;38.086;2022-12-13T00:04:06;6.75;;;2.00;;
67363;SDS011;54250;45.572;38.086;2022-12-13T00:06:32;1.70;;;1.55;;
67363;SDS011;54250;45.572;38.086;2022-12-13T00:08:59;1.58;;;1.40;;
67363;SDS011;54250;45.572;38.086;2022-12-13T00:11:26;9.80;;;1.88;;
67363;SDS011;54250;45.572;38.086;2022-12-13T00:13:53;1.63;;;1.25;;
67363;SDS011;54250;45.572;38.086;2022-12-13T00:16:20;19.17;;;2.05;;
67363;SDS011;54250;45.572;38.086;2022-12-13T00:18:48;3.35;;;1.50;;
67363;SDS011;54250;45.572;38.086;2022-12-13T00:21:17;5.10;;;2.03;;
67363;SDS011;54250;45.572;38.086;2022-12-13T00:23:45;2.75;;;0.60;;
67363;SDS011;54250;45.572;38.086;2022-12-13T00:26:13;2.72;;;2.00;;
67363;SDS011;54250;45.572;38.086;2022-12-13T00:28:43;7.65;;;2.30;;
67363;SDS011;54250;45.572;38.086;2022-12-13T00:31:10;2.10;;;1.48;;
67363;SDS011;54250;45.572;38.086;2022-12-13T00:33:37;2.63;;;2.08;;
67363;SDS011;54250;45.572;38.086;2022-12-13T00:36:04;2.67;;;2.15;;
67363;SDS011;54250;45.572;38.086;2022-12-13T00:38:32;16.38;;;1.88;;
67363;SDS011;54250;45.572;38.086;2022-12-13T00:40:59;3.00;;;1.88;;
67363;SDS011;54250;45.572;38.086;2022-12-13T00:43:33;3.55;;;1.90;;
67363;SDS011;54250;45.572;38.086;2022-12-13T00:45:59;1.88;;;1.70;;
67363;SDS011;54250;45.572;38.086;2022-12-13T00:48:25;2.30;;;1.88;;
67363;SDS011;54250;45.572;38.086;2022-12-13T00:50:51;3.83;;;2.28;;
67363;SDS011;54250;45.572;38.086;2022-12-13T00:53:17;2.80;;;1.95;;
67363;SDS011;54250;45.572;38.086;2022-12-13T00:55:43;2.97;;;2.70;;
67363;SDS011;54250;45.572;38.086;2022-12-13T00:58:09;3.28;;;2.15;;
67363;SDS011;54250;45.572;38.086;2022-12-13T01:00:35;2.53;;;1.88;;
67363;SDS011;54250;45.572;38.086;2022-12-13T01:03:01;5.28;;;2.53;;
67363;SDS011;54250;45.572;38.086;2022-12-13T01:05:47;2.55;;;1.90;;
67363;SDS011;54250;45.572;38.086;2022-12-13T01:08:14;2.92;;;1.77;;
67363;SDS011;54250;45.572;38.086;2022-12-13T01:10:43;2.83;;;1.83;;
67363;SDS011;54250;45.572;38.086;2022-12-13T01:13:10;5.63;;;1.90;;
67363;SDS011;54250;45.572;38.086;2022-12-13T01:15:41;3.13;;;1.90;;
67363;SDS011;54250;45.572;38.086;2022-12-13T01:18:11;1.65;;;1.55;;
67363;SDS011;54250;45.572;38.086;2022-12-13T01:20:38;2.30;;;2.10;;
67363;SDS011;54250;45.572;38.086;2022-12-13T01:23:05;5.60;;;1.38;;
67363;SDS011;54250;45.572;38.086;2022-12-13T01:25:31;3.25;;;1.30;;
67363;SDS011;54250;45.572;38.086;2022-12-13T01:27:58;1.85;;;1.55;;
67363;SDS011;54250;45.572;38.086;2022-12-13T01:30:25;2.50;;;1.90;;
67363;SDS011;54250;45.572;38.086;2022-12-13T01:32:51;3.38;;;1.95;;
67363;SDS011;54250;45.572;38.086;2022-12-13T01:35:17;12.68;;;3.42;;
67363;SDS011;54250;45.572;38.086;2022-12-13T01:37:43;2.83;;;1.95;;
67363;SDS011;54250;45.572;38.086;2022-12-13T01:40:10;5.82;;;1.63;;
67363;SDS011;54250;45.572;38.086;2022-12-13T01:42:37;3.45;;;2.15;;
67363;SDS011;54250;45.572;38.086;2022-12-13T01:47:50;3.15;;;1.92;;
67363;SDS011;54250;45.572;38.086;2022-12-13T01:50:25;2.30;;;1.95;;
67363;SDS011;54250;45.572;38.086;2022-12-13T01:52:56;3.75;;;1.58;;
67363;SDS011;54250;45.572;38.086;2022-12-13T01:55:24;7.57;;;2.22;;
67363;SDS011;54250;45.572;38.086;2022-12-13T01:57:54;4.03;;;1.73;;
67363;SDS011;54250;45.572;38.086;2022-12-13T02:00:25;3.40;;;1.90;;
67363;SDS011;54250;45.572;38.086;2022-12-13T02:02:51;5.72;;;2.78;;
67363;SDS011;54250;45.572;38.086;2022-12-13T02:07:50;3.25;;;2.33;;
67363;SDS011;54250;45.572;38.086;2022-12-13T02:10:17;3.75;;;1.90;;
67363;SDS011;54250;45.572;38.086;2022-12-13T02:12:44;3.60;;;2.78;;
67363;SDS011;54250;45.572;38.086;2022-12-13T02:15:11;5.45;;;3.15;;
67363;SDS011;54250;45.572;38.086;2022-12-13T02:20:50;12.70;;;2.28;;
67363;SDS011;54250;45.572;38.086;2022-12-13T02:34:33;24.15;;;5.22;;
67363;SDS011;54250;45.572;38.086;2022-12-13T02:37:06;10.30;;;3.60;;
67363;SDS011;54250;45.572;38.086;2022-12-13T02:39:35;6.05;;;3.28;;
67363;SDS011;54250;45.572;38.086;2022-12-13T02:42:11;16.85;;;4.63;;
67363;SDS011;54250;45.572;38.086;2022-12-13T02:45:04;6.15;;;3.85;;
67363;SDS011;54250;45.572;38.086;2022-12-13T02:47:36;7.45;;;3.65;;
67363;SDS011;54250;45.572;38.086;2022-12-13T02:50:06;13.55;;;4.72;;
67363;SDS011;54250;45.572;38.086;2022-12-13T02:52:33;7.63;;;3.65;;
67363;SDS011;54250;45.572;38.086;2022-12-13T02:55:05;9.30;;;4.07;;
67363;SDS011;54250;45.572;38.086;2022-12-13T02:57:33;7.05;;;4.28;;
67363;SDS011;54250;45.572;38.086;2022-12-13T03:00:04;10.32;;;4.68;;
67363;SDS011;54250;45.572;38.086;2022-12-13T03:09:08;12.30;;;3.22;;
67363;SDS011;54250;45.572;38.086;2022-12-13T03:15:01;18.10;;;5.28;;
67363;SDS011;54250;45.572;38.086;2022-12-13T03:17:43;5.82;;;3.38;;
67363;SDS011;54250;45.572;38.086;2022-12-13T03:20:46;17.70;;;3.05;;
67363;SDS011;54250;45.572;38.086;2022-12-13T03:23:13;8.90;;;4.10;;
67363;SDS011;54250;45.572;38.086;2022-12-13T03:25:41;6.38;;;2.90;;
67363;SDS011;54250;45.572;38.086;2022-12-13T03:28:07;5.45;;;3.72;;
67363;SDS011;54250;45.572;38.086;2022-12-13T03:30:33;5.72;;;3.15;;
67363;SDS011;54250;45.572;38.086;2022-12-13T03:33:00;5.25;;;3.45;;
67363;SDS011;54250;45.572;38.086;2022-12-13T03:35:26;11.13;;;4.10;;
67363;SDS011;54250;45.572;38.086;2022-12-13T03:37:53;6.22;;;4.25;;
67363;SDS011;54250;45.572;38.086;2022-12-13T03:40:19;9.55;;;3.42;;
67363;SDS011;54250;45.572;38.086;2022-12-13T03:42:46;12.77;;;4.40;;
67363;SDS011;54250;45.572;38.086;2022-12-13T03:45:12;9.60;;;3.92;;
67363;SDS011;54250;45.572;38.086;2022-12-13T03:47:38;4.22;;;3.13;;
67363;SDS011;54250;45.572;38.086;2022-12-13T03:50:04;7.25;;;4.18;;
67363;SDS011;54250;45.572;38.086;2022-12-13T03:52:31;7.20;;;3.65;;
67363;SDS011;54250;45.572;38.086;2022-12-13T03:54:57;6.05;;;3.78;;
67363;SDS011;54250;45.572;38.086;2022-12-13T03:57:23;6.30;;;3.97;;
67363;SDS011;54250;45.572;38.086;2022-12-13T03:59:49;24.05;;;5.10;;
67363;SDS011;54250;45.572;38.086;2022-12-13T04:02:15;5.90;;;3.80;;
67363;SDS011;54250;45.572;38.086;2022-12-13T04:04:41;11.05;;;3.28;;
67363;SDS011;54250;45.572;38.086;2022-12-13T04:07:07;9.35;;;3.78;;
67363;SDS011;54250;45.572;38.086;2022-12-13T04:09:33;13.20;;;4.50;;
67363;SDS011;54250;45.572;38.086;2022-12-13T04:11:59;7.75;;;3.35;;
67363;SDS011;54250;45.572;38.086;2022-12-13T04:17:10;2.63;;;1.55;;
67363;SDS011;54250;45.572;38.086;2022-12-13T04:19:36;2.75;;;1.77;;
67363;SDS011;54250;45.572;38.086;2022-12-13T04:22:02;2.33;;;2.05;;
67363;SDS011;54250;45.572;38.086;2022-12-13T04:24:28;2.35;;;1.38;;
67363;SDS011;54250;45.572;38.086;2022-12-13T04:26:56;4.00;;;1.67;;
67363;SDS011;54250;45.572;38.086;2022-12-13T04:29:22;6.85;;;3.00;;
67363;SDS011;54250;45.572;38.086;2022-12-13T04:31:48;3.67;;;1.73;;
67363;SDS011;54250;45.572;38.086;2022-12-13T04:34:14;3.45;;;2.35;;
67363;SDS011;54250;45.572;38.086;2022-12-13T04:36:40;2.35;;;1.88;;
67363;SDS011;54250;45.572;38.086;2022-12-13T04:39:06;4.88;;;1.95;;
67363;SDS011;54250;45.572;38.086;2022-12-13T04:41:35;3.70;;;1.85;;
67363;SDS011;54250;45.572;38.086;2022-12-13T04:44:03;1.88;;;1.75;;
67363;SDS011;54250;45.572;38.086;2022-12-13T04:46:30;9.30;;;3.08;;
67363;SDS011;54250;45.572;38.086;2022-12-13T04:48:56;14.10;;;3.55;;
67363;SDS011;54250;45.572;38.086;2022-12-13T04:51:22;6.97;;;4.00;;
67363;SDS011;54250;45.572;38.086;2022-12-13T04:53:48;3.97;;;2.72;;
67363;SDS011;54250;45.572;38.086;2022-12-13T04:56:14;10.43;;;3.70;;
67363;SDS011;54250;45.572;38.086;2022-12-13T04:58:40;7.95;;;3.78;;
67363;SDS011;54250;45.572;38.086;2022-12-13T05:01:07;10.23;;;3.88;;
67363;SDS011;54250;45.572;38.086;2022-12-13T05:03:34;12.93;;;4.13;;
67363;SDS011;54250;45.572;38.086;2022-12-13T05:06:06;1.73;;;1.52;;
67363;SDS011;54250;45.572;38.086;2022-12-13T05:08:35;3.45;;;2.95;;
67363;SDS011;54250;45.572;38.086;2022-12-13T05:11:02;14.30;;;1.83;;
67363;SDS011;54250;45.572;38.086;2022-12-13T05:13:28;3.92;;;2.97;;
67363;SDS011;54250;45.572;38.086;2022-12-13T05:15:58;7.65;;;3.28;;
67363;SDS011;54250;45.572;38.086;2022-12-13T05:18:26;0.93;;;0.80;;
67363;SDS011;54250;45.572;38.086;2022-12-13T05:20:52;7.70;;;4.03;;
67363;SDS011;54250;45.572;38.086;2022-12-13T05:23:19;11.68;;;5.10;;
67363;SDS011;54250;45.572;38.086;2022-12-13T05:25:47;7.45;;;3.92;;
67363;SDS011;54250;45.572;38.086;2022-12-13T05:28:14;7.82;;;4.00;;
67363;SDS011;54250;45.572;38.086;2022-12-13T05:30:40;16.30;;;3.92;;
67363;SDS011;54250;45.572;38.086;2022-12-13T05:33:10;8.40;;;3.40;;
67363;SDS011;54250;45.572;38.086;2022-12-13T05:35:36;2.65;;;2.10;;
67363;SDS011;54250;45.572;38.086;2022-12-13T05:38:03;16.35;;;4.18;;
67363;SDS011;54250;45.572;38.086;2022-12-13T05:40:29;3.90;;;2.78;;
67363;SDS011;54250;45.572;38.086;2022-12-13T05:42:56;4.30;;;2.60;;
67363;SDS011;54250;45.572;38.086;2022-12-13T05:45:23;1.92;;;1.27;;
67363;SDS011;54250;45.572;38.086;2022-12-13T05:47:50;2.65;;;1.95;;
67363;SDS011;54250;45.572;38.086;2022-12-13T05:50:16;2.40;;;2.05;;
67363;SDS011;54250;45.572;38.086;2022-12-13T05:52:43;4.60;;;2.72;;
67363;SDS011;54250;45.572;38.086;2022-12-13T05:55:09;5.43;;;2.63;;
67363;SDS011;54250;45.572;38.086;2022-12-13T05:57:36;1.98;;;1.60;;
67363;SDS011;54250;45.572;38.086;2022-12-13T06:00:06;4.13;;;2.85;;
67363;SDS011;54250;45.572;38.086;2022-12-13T06:02:41;6.95;;;3.28;;
67363;SDS011;54250;45.572;38.086;2022-12-13T06:05:08;9.38;;;2.17;;
67363;SDS011;54250;45.572;38.086;2022-12-13T06:07:35;3.63;;;2.25;;
67363;SDS011;54250;45.572;38.086;2022-12-13T06:10:05;2.35;;;2.10;;
67363;SDS011;54250;45.572;38.086;2022-12-13T06:12:34;3.88;;;2.38;;
67363;SDS011;54250;45.572;38.086;2022-12-13T06:15:01;5.97;;;2.67;;
67363;SDS011;54250;45.572;38.086;2022-12-13T06:17:31;8.63;;;2.90;;
67363;SDS011;54250;45.572;38.086;2022-12-13T06:19:58;4.57;;;2.25;;
67363;SDS011;54250;45.572;38.086;2022-12-13T06:22:24;4.28;;;2.55;;
67363;SDS011;54250;45.572;38.086;2022-12-13T06:24:51;2.60;;;1.85;;
67363;SDS011;54250;45.572;38.086;2022-12-13T06:27:17;4.18;;;2.38;;
67363;SDS011;54250;45.572;38.086;2022-12-13T06:29:43;8.75;;;4.22;;
67363;SDS011;54250;45.572;38.086;2022-12-13T06:32:09;1.50;;;1.40;;
67363;SDS011;54250;45.572;38.086;2022-12-13T06:34:35;4.32;;;2.97;;
67363;SDS011;54250;45.572;38.086;2022-12-13T06:37:03;8.20;;;3.75;;
67363;SDS011;54250;45.572;38.086;2022-12-13T06:39:31;3.47;;;2.33;;
67363;SDS011;54250;45.572;38.086;2022-12-13T06:41:58;4.85;;;3.13;;
67363;SDS011;54250;45.572;38.086;2022-12-13T06:44:24;4.55;;;2.65;;
67363;SDS011;54250;45.572;38.086;2022-12-13T06:46:50;5.75;;;2.40;;
67363;SDS011;54250;45.572;38.086;2022-12-13T06:49:15;5.55;;;3.47;;
67363;SDS011;54250;45.572;38.086;2022-12-13T06:51:41;3.17;;;2.53;;
67363;SDS011;54250;45.572;38.086;2022-12-13T06:54:07;6.65;;;2.92;;
67363;SDS011;54250;45.572;38.086;2022-12-13T06:56:33;5.38;;;2.88;;
67363;SDS011;54250;45.572;38.086;2022-12-13T06:58:59;6.35;;;3.47;;
67363;SDS011;54250;45.572;38.086;2022-12-13T07:01:25;3.83;;;3.00;;
67363;SDS011;54250;45.572;38.086;2022-12-13T07:03:54;5.03;;;2.97;;
67363;SDS011;54250;45.572;38.086;2022-12-13T07:06:22;4.45;;;2.50;;
67363;SDS011;54250;45.572;38.086;2022-12-13T07:08:52;1.85;;;1.67;;
67363;SDS011;54250;45.572;38.086;2022-12-13T07:11:29;2.45;;;1.60;;
67363;SDS011;54250;45.572;38.086;2022-12-13T07:13:57;2.38;;;1.67;;
67363;SDS011;54250;45.572;38.086;2022-12-13T07:16:24;13.20;;;4.25;;
67363;SDS011;54250;45.572;38.086;2022-12-13T07:18:55;4.65;;;2.28;;
67363;SDS011;54250;45.572;38.086;2022-12-13T07:23:51;5.68;;;3.10;;
67363;SDS011;54250;45.572;38.086;2022-12-13T07:26:18;0.98;;;0.98;;
67363;SDS011;54250;45.572;38.086;2022-12-13T07:28:44;4.78;;;2.53;;
67363;SDS011;54250;45.572;38.086;2022-12-13T07:31:12;2.58;;;2.20;;
67363;SDS011;54250;45.572;38.086;2022-12-13T07:33:39;6.45;;;3.75;;
67363;SDS011;54250;45.572;38.086;2022-12-13T07:38:34;7.15;;;4.63;;
67363;SDS011;54250;45.572;38.086;2022-12-13T07:41:01;5.95;;;3.25;;
67363;SDS011;54250;45.572;38.086;2022-12-13T07:43:27;3.60;;;2.13;;
67363;SDS011;54250;45.572;38.086;2022-12-13T07:45:59;8.90;;;5.05;;
67363;SDS011;54250;45.572;38.086;2022-12-13T07:48:27;6.57;;;3.72;;
67363;SDS011;54250;45.572;38.086;2022-12-13T07:50:54;5.88;;;3.72;;
67363;SDS011;54250;45.572;38.086;2022-12-13T07:53:24;7.53;;;4.85;;
67363;SDS011;54250;45.572;38.086;2022-12-13T07:55:51;9.82;;;5.00;;
67363;SDS011;54250;45.572;38.086;2022-12-13T07:58:17;8.48;;;4.75;;
67363;SDS011;54250;45.572;38.086;2022-12-13T08:00:43;5.53;;;2.97;;
67363;SDS011;54250;45.572;38.086;2022-12-13T08:03:10;6.28;;;3.97;;
67363;SDS011;54250;45.572;38.086;2022-12-13T08:05:37;4.32;;;2.72;;
67363;SDS011;54250;45.572;38.086;2022-12-13T08:08:04;5.28;;;3.97;;
67363;SDS011;54250;45.572;38.086;2022-12-13T08:10:32;7.65;;;3.88;;
67363;SDS011;54250;45.572;38.086;2022-12-13T08:13:00;2.97;;;1.95;;
67363;SDS011;54250;45.572;38.086;2022-12-13T08:15:27;8.10;;;4.22;;
67363;SDS011;54250;45.572;38.086;2022-12-13T08:17:56;6.20;;;2.92;;
67363;SDS011;54250;45.572;38.086;2022-12-13T08:20:25;5.25;;;3.10;;
67363;SDS011;54250;45.572;38.086;2022-12-13T08:22:54;7.88;;;3.80;;
67363;SDS011;54250;45.572;38.086;2022-12-13T08:25:21;2.33;;;2.13;;
67363;SDS011;54250;45.572;38.086;2022-12-13T08:27:48;5.88;;;3.22;;
67363;SDS011;54250;45.572;38.086;2022-12-13T08:30:14;13.60;;;3.58;;
67363;SDS011;54250;45.572;38.086;2022-12-13T08:32:40;11.20;;;3.90;;
67363;SDS011;54250;45.572;38.086;2022-12-13T08:35:06;4.50;;;2.78;;
67363;SDS011;54250;45.572;38.086;2022-12-13T08:37:32;21.27;;;3.85;;
67363;SDS011;54250;45.572;38.086;2022-12-13T08:39:58;8.20;;;3.60;;
67363;SDS011;54250;45.572;38.086;2022-12-13T08:42:24;11.65;;;4.70;;
67363;SDS011;54250;45.572;38.086;2022-12-13T08:44:51;8.23;;;3.70;;
67363;SDS011;54250;45.572;38.086;2022-12-13T08:47:22;5.65;;;3.50;;
67363;SDS011;54250;45.572;38.086;2022-12-13T08:49:49;4.63;;;3.13;;
67363;SDS011;54250;45.572;38.086;2022-12-13T08:52:15;7.72;;;3.85;;
67363;SDS011;54250;45.572;38.086;2022-12-13T08:54:41;5.78;;;3.50;;
67363;SDS011;54250;45.572;38.086;2022-12-13T08:57:09;7.75;;;3.88;;
67363;SDS011;54250;45.572;38.086;2022-12-13T08:59:35;6.72;;;3.80;;
67363;SDS011;54250;45.572;38.086;2022-12-13T09:02:01;16.23;;;3.80;;
67363;SDS011;54250;45.572;38.086;2022-12-13T09:04:27;7.93;;;3.05;;
67363;SDS011;54250;45.572;38.086;2022-12-13T09:06:53;6.13;;;3.28;;
67363;SDS011;54250;45.572;38.086;2022-12-13T09:09:19;3.42;;;2.63;;
67363;SDS011;54250;45.572;38.086;2022-12-13T09:11:45;4.18;;;2.45;;
67363;SDS011;54250;45.572;38.086;2022-12-13T09:14:12;2.92;;;2.08;;
67363;SDS011;54250;45.572;38.086;2022-12-13T09:16:38;3.80;;;2.83;;
67363;SDS011;54250;45.572;38.086;2022-12-13T09:19:04;2.55;;;2.17;;
67363;SDS011;54250;45.572;38.086;2022-12-13T09:21:30;22.52;;;4.88;;
67363;SDS011;54250;45.572;38.086;2022-12-13T09:23:56;2.22;;;1.75;;
67363;SDS011;54250;45.572;38.086;2022-12-13T09:26:22;12.98;;;6.03;;
67363;SDS011;54250;45.572;38.086;2022-12-13T09:28:48;5.00;;;3.03;;
67363;SDS011;54250;45.572;38.086;2022-12-13T09:31:15;8.55;;;3.42;;
67363;SDS011;54250;45.572;38.086;2022-12-13T09:33:43;8.55;;;3.10;;
67363;SDS011;54250;45.572;38.086;2022-12-13T09:36:12;7.63;;;3.45;;
67363;SDS011;54250;45.572;38.086;2022-12-13T09:38:44;8.73;;;5.45;;
67363;SDS011;54250;45.572;38.086;2022-12-13T09:44:00;7.72;;;3.50;;
67363;SDS011;54250;45.572;38.086;2022-12-13T09:49:02;2.70;;;2.42;;
67363;SDS011;54250;45.572;38.086;2022-12-13T09:51:35;5.03;;;3.27;;
67363;SDS011;54250;45.572;38.086;2022-12-13T09:54:01;4.55;;;2.50;;
67363;SDS011;54250;45.572;38.086;2022-12-13T09:56:27;5.72;;;2.53;;
67363;SDS011;54250;45.572;38.086;2022-12-13T09:58:53;8.98;;;2.67;;
67363;SDS011;54250;45.572;38.086;2022-12-13T10:01:21;14.70;;;2.85;;
67363;SDS011;54250;45.572;38.086;2022-12-13T10:03:48;6.45;;;4.03;;
67363;SDS011;54250;45.572;38.086;2022-12-13T10:06:22;4.00;;;2.70;;
67363;SDS011;54250;45.572;38.086;2022-12-13T10:08:53;10.52;;;4.57;;
67363;SDS011;54250;45.572;38.086;2022-12-13T10:11:20;4.93;;;3.20;;
67363;SDS011;54250;45.572;38.086;2022-12-13T10:13:53;10.73;;;3.58;;
67363;SDS011;54250;45.572;38.086;2022-12-13T10:16:26;6.55;;;3.30;;
67363;SDS011;54250;45.572;38.086;2022-12-13T10:19:38;6.28;;;3.10;;
67363;SDS011;54250;45.572;38.086;2022-12-13T10:21:59;6.85;;;3.03;;
67363;SDS011;54250;45.572;38.086;2022-12-13T10:24:27;10.48;;;3.42;;
67363;SDS011;54250;45.572;38.086;2022-12-13T10:27:14;8.60;;;3.45;;
67363;SDS011;54250;45.572;38.086;2022-12-13T10:29:55;5.53;;;3.40;;
67363;SDS011;54250;45.572;38.086;2022-12-13T10:32:30;8.95;;;3.50;;
67363;SDS011;54250;45.572;38.086;2022-12-13T10:34:59;5.80;;;3.30;;
67363;SDS011;54250;45.572;38.086;2022-12-13T10:37:26;3.15;;;2.42;;
67363;SDS011;54250;45.572;38.086;2022-12-13T10:39:57;7.28;;;3.67;;
67363;SDS011;54250;45.572;38.086;2022-12-13T10:42:24;10.52;;;2.88;;
67363;SDS011;54250;45.572;38.086;2022-12-13T10:45:08;4.50;;;2.78;;
67363;SDS011;54250;45.572;38.086;2022-12-13T10:47:42;6.95;;;2.78;;
67363;SDS011;54250;45.572;38.086;2022-12-13T10:50:43;3.92;;;2.40;;
67363;SDS011;54250;45.572;38.086;2022-12-13T10:53:02;5.38;;;3.25;;
67363;SDS011;54250;45.572;38.086;2022-12-13T10:55:29;3.42;;;2.55;;
67363;SDS011;54250;45.572;38.086;2022-12-13T10:58:02;3.90;;;2.83;;
67363;SDS011;54250;45.572;38.086;2022-12-13T11:00:49;2.47;;;2.28;;
67363;SDS011;54250;45.572;38.086;2022-12-13T11:03:29;8.68;;;2.85;;
67363;SDS011;54250;45.572;38.086;2022-12-13T11:06:11;3.83;;;1.98;;
67363;SDS011;54250;45.572;38.086;2022-12-13T11:08:38;7.47;;;3.17;;
67363;SDS011;54250;45.572;38.086;2022-12-13T11:11:06;8.43;;;3.88;;
67363;SDS011;54250;45.572;38.086;2022-12-13T11:13:40;15.80;;;3.65;;
67363;SDS011;54250;45.572;38.086;2022-12-13T11:18:52;8.25;;;3.40;;
67363;SDS011;54250;45.572;38.086;2022-12-13T11:21:24;5.43;;;3.25;;
67363;SDS011;54250;45.572;38.086;2022-12-13T11:23:56;9.98;;;3.35;;
67363;SDS011;54250;45.572;38.086;2022-12-13T11:26:25;6.40;;;2.55;;
67363;SDS011;54250;45.572;38.086;2022-12-13T11:37:32;5.13;;;3.30;;
67363;SDS011;54250;45.572;38.086;2022-12-13T11:42:31;6.47;;;2.65;;
67363;SDS011;54250;45.572;38.086;2022-12-13T11:51:05;5.40;;;2.33;;
67363;SDS011;54250;45.572;38.086;2022-12-13T11:53:45;3.90;;;3.05;;
67363;SDS011;54250;45.572;38.086;2022-12-13T11:56:40;9.32;;;3.88;;
67363;SDS011;54250;45.572;38.086;2022-12-13T11:59:20;7.15;;;3.67;;
67363;SDS011;54250;45.572;38.086;2022-12-13T12:12:40;20.77;;;4.43;;
67363;SDS011;54250;45.572;38.086;2022-12-13T12:17:39;7.22;;;3.78;;
67363;SDS011;54250;45.572;38.086;2022-12-13T12:20:13;5.65;;;2.50;;
67363;SDS011;54250;45.572;38.086;2022-12-13T12:25:45;3.22;;;2.17;;
67363;SDS011;54250;45.572;38.086;2022-12-13T12:39:49;6.28;;;3.70;;
67363;SDS011;54250;45.572;38.086;2022-12-13T12:45:40;7.28;;;2.95;;
67363;SDS011;54250;45.572;38.086;2022-12-13T12:48:41;4.05;;;2.28;;
67363;SDS011;54250;45.572;38.086;2022-12-13T12:54:07;5.85;;;2.60;;
67363;SDS011;54250;45.572;38.086;2022-12-13T12:57:38;4.63;;;3.13;;
67363;SDS011;54250;45.572;38.086;2022-12-13T13:02:37;3.00;;;2.17;;
67363;SDS011;54250;45.572;38.086;2022-12-13T13:05:22;15.38;;;5.50;;
67363;SDS011;54250;45.572;38.086;2022-12-13T13:08:19;4.43;;;2.15;;
67363;SDS011;54250;45.572;38.086;2022-12-13T13:10:55;11.65;;;3.67;;
67363;SDS011;54250;45.572;38.086;2022-12-13T13:13:59;5.15;;;3.08;;
67363;SDS011;54250;45.572;38.086;2022-12-13T13:16:36;3.03;;;2.30;;
67363;SDS011;54250;45.572;38.086;2022-12-13T13:19:38;4.68;;;2.03;;
67363;SDS011;54250;45.572;38.086;2022-12-13T13:21:57;8.18;;;3.83;;
67363;SDS011;54250;45.572;38.086;2022-12-13T13:24:27;8.30;;;3.85;;
67363;SDS011;54250;45.572;38.086;2022-12-13T13:27:19;6.15;;;3.85;;
67363;SDS011;54250;45.572;38.086;2022-12-13T13:29:51;5.40;;;2.38;;
67363;SDS011;54250;45.572;38.086;2022-12-13T13:32:24;4.68;;;3.45;;
67363;SDS011;54250;45.572;38.086;2022-12-13T13:34:52;5.53;;;3.25;;
67363;SDS011;54250;45.572;38.086;2022-12-13T13:37:43;8.68;;;4.28;;
67363;SDS011;54250;45.572;38.086;2022-12-13T13:49:17;8.90;;;4.65;;
67363;SDS011;54250;45.572;38.086;2022-12-13T13:56:43;7.93;;;4.15;;
67363;SDS011;54250;45.572;38.086;2022-12-13T14:10:46;5.30;;;2.63;;
67363;SDS011;54250;45.572;38.086;2022-12-13T14:18:56;5.95;;;4.10;;
67363;SDS011;54250;45.572;38.086;2022-12-13T14:24:20;8.10;;;4.22;;
67363;SDS011;54250;45.572;38.086;2022-12-13T14:29:36;5.30;;;3.45;;
67363;SDS011;54250;45.572;38.086;2022-12-13T14:32:41;14.90;;;3.92;;
67363;SDS011;54250;45.572;38.086;2022-12-13T14:35:01;9.90;;;4.60;;
67363;SDS011;54250;45.572;38.086;2022-12-13T14:39:56;5.60;;;3.75;;
67363;SDS011;54250;45.572;38.086;2022-12-13T14:42:24;4.82;;;2.85;;
67363;SDS011;54250;45.572;38.086;2022-12-13T14:44:55;8.65;;;2.70;;
67363;SDS011;54250;45.572;38.086;2022-12-13T14:47:46;7.28;;;3.40;;
67363;SDS011;54250;45.572;38.086;2022-12-13T14:50:13;7.30;;;3.55;;
67363;SDS011;54250;45.572;38.086;2022-12-13T14:52:42;5.20;;;2.67;;
67363;SDS011;54250;45.572;38.086;2022-12-13T14:57:54;4.37;;;3.00;;
67363;SDS011;54250;45.572;38.086;2022-12-13T15:02:52;4.15;;;3.10;;
67363;SDS011;54250;45.572;38.086;2022-12-13T15:05:25;3.70;;;2.33;;
67363;SDS011;54250;45.572;38.086;2022-12-13T15:07:51;17.45;;;2.70;;
67363;SDS011;54250;45.572;38.086;2022-12-13T15:10:21;5.45;;;2.90;;
67363;SDS011;54250;45.572;38.086;2022-12-13T15:13:03;4.85;;;2.35;;
67363;SDS011;54250;45.572;38.086;2022-12-13T15:15:31;4.15;;;2.40;;
67363;SDS011;54250;45.572;38.086;2022-12-13T15:18:06;2.92;;;1.83;;
67363;SDS011;54250;45.572;38.086;2022-12-13T15:20:42;6.38;;;2.55;;
67363;SDS011;54250;45.572;38.086;2022-12-13T15:26:06;3.10;;;2.33;;
67363;SDS011;54250;45.572;38.086;2022-12-13T15:28:38;6.70;;;3.80;;
67363;SDS011;54250;45.572;38.086;2022-12-13T15:31:08;9.02;;;3.45;;
67363;SDS011;54250;45.572;38.086;2022-12-13T15:33:36;4.95;;;2.03;;
67363;SDS011;54250;45.572;38.086;2022-12-13T15:38:29;1.05;;;0.80;;
67363;SDS011;54250;45.572;38.086;2022-12-13T15:40:55;0.57;;;0.50;;
67363;SDS011;54250;45.572;38.086;2022-12-13T15:43:24;2.40;;;0.50;;
67363;SDS011;54250;45.572;38.086;2022-12-13T15:46:07;7.18;;;1.38;;
67363;SDS011;54250;45.572;38.086;2022-12-13T15:48:41;8.68;;;0.40;;
67363;SDS011;54250;45.572;38.086;2022-12-13T15:51:12;0.40;;;0.22;;
67363;SDS011;54250;45.572;38.086;2022-12-13T15:56:37;0.10;;;0.10;;
67363;SDS011;54250;45.572;38.086;2022-12-13T15:59:04;0.68;;;0.28;;
67363;SDS011;54250;45.572;38.086;2022-12-13T16:01:47;0.22;;;0.22;;
67363;SDS011;54250;45.572;38.086;2022-12-13T16:04:19;2.17;;;0.35;;
67363;SDS011;54250;45.572;38.086;2022-12-13T16:06:47;0.32;;;0.25;;
67363;SDS011;54250;45.572;38.086;2022-12-13T16:09:17;0.85;;;0.60;;
67363;SDS011;54250;45.572;38.086;2022-12-13T16:17:39;3.47;;;0.40;;
67363;SDS011;54250;45.572;38.086;2022-12-13T16:19:51;1.35;;;0.47;;
67363;SDS011;54250;45.572;38.086;2022-12-13T16:22:18;0.70;;;0.45;;
67363;SDS011;54250;45.572;38.086;2022-12-13T16:24:51;0.20;;;0.10;;
67363;SDS011;54250;45.572;38.086;2022-12-13T16:27:18;2.97;;;0.55;;
67363;SDS011;54250;45.572;38.086;2022-12-13T16:29:44;0.30;;;0.30;;
67363;SDS011;54250;45.572;38.086;2022-12-13T16:32:10;2.13;;;0.43;;
67363;SDS011;54250;45.572;38.086;2022-12-13T16:34:36;0.30;;;0.20;;
67363;SDS011;54250;45.572;38.086;2022-12-13T16:37:03;0.20;;;0.20;;
67363;SDS011;54250;45.572;38.086;2022-12-13T16:39:30;0.08;;;0.08;;
67363;SDS011;54250;45.572;38.086;2022-12-13T16:41:57;0.20;;;0.20;;
67363;SDS011;54250;45.572;38.086;2022-12-13T16:46:52;2.65;;;0.70;;
67363;SDS011;54250;45.572;38.086;2022-12-13T16:51:46;0.13;;;0.13;;
67363;SDS011;54250;45.572;38.086;2022-12-13T16:54:12;0.60;;;0.60;;
67363;SDS011;54250;45.572;38.086;2022-12-13T16:56:38;1.08;;;0.98;;
67363;SDS011;54250;45.572;38.086;2022-12-13T16:59:04;1.73;;;0.80;;
67363;SDS011;54250;45.572;38.086;2022-12-13T17:01:30;0.38;;;0.38;;
67363;SDS011;54250;45.572;38.086;2022-12-13T17:03:57;12.07;;;0.63;;
67363;SDS011;54250;45.572;38.086;2022-12-13T17:06:23;0.10;;;0.10;;
67363;SDS011;54250;45.572;38.086;2022-12-13T17:08:49;0.20;;;0.20;;
67363;SDS011;54250;45.572;38.086;2022-12-13T17:11:15;4.40;;;1.17;;
67363;SDS011;54250;45.572;38.086;2022-12-13T17:13:41;0.10;;;0.10;;
67363;SDS011;54250;45.572;38.086;2022-12-13T17:16:09;1.17;;;0.30;;
67363;SDS011;54250;45.572;38.086;2022-12-13T17:18:35;0.75;;;0.55;;
67363;SDS011;54250;45.572;38.086;2022-12-13T17:21:05;0.50;;;0.43;;
67363;SDS011;54250;45.572;38.086;2022-12-13T17:23:32;0.20;;;0.20;;
67363;SDS011;54250;45.572;38.086;2022-12-13T17:26:05;0.75;;;0.50;;
67363;SDS011;54250;45.572;38.086;2022-12-13T17:28:33;3.50;;;1.10;;
67363;SDS011;54250;45.572;38.086;2022-12-13T17:31:03;0.60;;;0.60;;